PWSweather.com
Personal Weather Stations
Station Observations

SkegnessGB

Lat: 53.147585, Lon: 0.345774

Elevation: 18

Station Type: Fine Offset WH3080

http://www.skegnessweather.info/

High Low Average
Temperature 29.3°F-1.5°C 24.4°F-4.2°C 27.3°F-2.6°C
Dew Point 21.9°F-5.6°C 14.7°F-9.6°C 19.6°F-6.9°C
Winds 20.3 mph 32.7 kmh 10.3 mph 16.6 kmh 15.0 mph SE24.1 kmh SE
Wind Gusts 29.3 mph47.2 kmh 13.3 mph21.4 kmh 21.0 mph33.8 kmh
Humidity 75% 66% 72%
Pressure 29.93 in1013.5 mb 29.53 in1000.0 mb -
Precipitation 0.00 in0.0 mm - -
Hour Temp Dew Point Humidity Winds Wind Gusts Pressure Precip Precip Rate Daily Precip Total
12:00 AM 24.6°F-4.1°C 14.9°F-9.5°C 66% 13.0 mph NNE20.9 kmh NNE 20.2 mph32.5 kmh 29.93 in1013.5 mb 0.00 in0.0 mm 0.00 in0.0 mm 0.00 in0.0 mm
12:10 AM 24.4°F-4.2°C 14.7°F-9.6°C 66% 11.0 mph NE17.7 kmh NE 14.3 mph23.0 kmh 29.92 in1013.2 mb 0.00 in0.0 mm 0.00 in0.0 mm 0.00 in0.0 mm
12:20 AM 24.4°F-4.2°C 15.4°F-9.2°C 68% 11.7 mph NE18.8 kmh NE 16.0 mph25.7 kmh 29.92 in1013.2 mb 0.00 in0.0 mm 0.00 in0.0 mm 0.00 in0.0 mm
12:30 AM 24.6°F-4.1°C 14.9°F-9.5°C 66% 12.8 mph NE20.6 kmh NE 14.3 mph23.0 kmh 29.92 in1013.2 mb 0.00 in0.0 mm 0.00 in0.0 mm 0.00 in0.0 mm
12:40 AM 24.4°F-4.2°C 15.0°F-9.4°C 67% 10.3 mph NW16.6 kmh NW 15.0 mph24.1 kmh 29.91 in1012.9 mb 0.00 in0.0 mm 0.00 in0.0 mm 0.00 in0.0 mm
12:50 AM 24.4°F-4.2°C 14.7°F-9.6°C 66% 11.8 mph NW19.0 kmh NW 17.5 mph28.2 kmh 29.91 in1012.9 mb 0.00 in0.0 mm 0.00 in0.0 mm 0.00 in0.0 mm
01:00 AM 24.6°F-4.1°C 14.9°F-9.5°C 66% 14.2 mph N22.9 kmh N 20.9 mph33.6 kmh 29.91 in1012.9 mb 0.00 in0.0 mm 0.00 in0.0 mm 0.00 in0.0 mm
01:10 AM 24.4°F-4.2°C 14.7°F-9.6°C 66% 12.5 mph NW20.1 kmh NW 16.0 mph25.7 kmh 29.90 in1012.5 mb 0.00 in0.0 mm 0.00 in0.0 mm 0.00 in0.0 mm
01:20 AM 24.6°F-4.1°C 15.2°F-9.3°C 67% 15.4 mph N24.8 kmh N 17.5 mph28.2 kmh 29.89 in1012.2 mb 0.00 in0.0 mm 0.00 in0.0 mm 0.00 in0.0 mm
01:30 AM 24.6°F-4.1°C 15.6°F-9.1°C 68% 13.7 mph NNE22.0 kmh NNE 19.2 mph30.9 kmh 29.89 in1012.2 mb 0.00 in0.0 mm 0.00 in0.0 mm 0.00 in0.0 mm
01:40 AM 24.6°F-4.1°C 15.6°F-9.1°C 68% 14.0 mph N22.5 kmh N 20.9 mph33.6 kmh 29.89 in1012.2 mb 0.00 in0.0 mm 0.00 in0.0 mm 0.00 in0.0 mm
01:50 AM 24.6°F-4.1°C 16.6°F-8.6°C 71% 12.0 mph N19.3 kmh N 18.5 mph29.8 kmh 29.89 in1012.2 mb 0.00 in0.0 mm 0.00 in0.0 mm 0.00 in0.0 mm
02:00 AM 24.4°F-4.2°C 17.0°F-8.3°C 73% 15.1 mph N24.3 kmh N 20.9 mph33.6 kmh 29.89 in1012.2 mb 0.00 in0.0 mm 0.00 in0.0 mm 0.00 in0.0 mm
02:10 AM 24.4°F-4.2°C 17.0°F-8.3°C 73% 12.5 mph N20.1 kmh N 17.5 mph28.2 kmh 29.88 in1011.9 mb 0.00 in0.0 mm 0.00 in0.0 mm 0.00 in0.0 mm
02:20 AM 24.4°F-4.2°C 17.0°F-8.3°C 73% 14.7 mph N23.7 kmh N 17.5 mph28.2 kmh 29.88 in1011.9 mb 0.00 in0.0 mm 0.00 in0.0 mm 0.00 in0.0 mm
02:30 AM 24.4°F-4.2°C 17.0°F-8.3°C 73% 12.6 mph N20.3 kmh N 25.1 mph40.4 kmh 29.87 in1011.5 mb 0.00 in0.0 mm 0.00 in0.0 mm 0.00 in0.0 mm
02:40 AM 24.6°F-4.1°C 16.9°F-8.4°C 72% 13.3 mph NE21.4 kmh NE 25.1 mph40.4 kmh 29.86 in1011.2 mb 0.00 in0.0 mm 0.00 in0.0 mm 0.00 in0.0 mm
02:50 AM 24.6°F-4.1°C 16.9°F-8.4°C 72% 13.7 mph NNW22.0 kmh NNW 18.5 mph29.8 kmh 29.85 in1010.8 mb 0.00 in0.0 mm 0.00 in0.0 mm 0.00 in0.0 mm
03:00 AM 24.8°F-4.0°C 17.1°F-8.3°C 72% 15.0 mph N24.1 kmh N 17.5 mph28.2 kmh 29.85 in1010.8 mb 0.00 in0.0 mm 0.00 in0.0 mm 0.00 in0.0 mm
03:10 AM 24.6°F-4.1°C 17.2°F-8.2°C 73% 11.9 mph NE19.2 kmh NE 13.3 mph21.4 kmh 29.85 in1010.8 mb 0.00 in0.0 mm 0.00 in0.0 mm 0.00 in0.0 mm
03:20 AM 24.8°F-4.0°C 17.4°F-8.1°C 73% 17.1 mph N27.5 kmh N 20.2 mph32.5 kmh 29.84 in1010.5 mb 0.00 in0.0 mm 0.00 in0.0 mm 0.00 in0.0 mm
03:30 AM 24.8°F-4.0°C 17.1°F-8.3°C 72% 17.0 mph NNE27.4 kmh NNE 20.9 mph33.6 kmh 29.83 in1010.2 mb 0.00 in0.0 mm 0.00 in0.0 mm 0.00 in0.0 mm
03:40 AM 24.8°F-4.0°C 17.1°F-8.3°C 72% 16.4 mph NNE26.4 kmh NNE 20.9 mph33.6 kmh 29.83 in1010.2 mb 0.00 in0.0 mm 0.00 in0.0 mm 0.00 in0.0 mm
03:50 AM 24.8°F-4.0°C 17.4°F-8.1°C 73% 13.7 mph NNE22.0 kmh NNE 16.7 mph26.9 kmh 29.83 in1010.2 mb 0.00 in0.0 mm 0.00 in0.0 mm 0.00 in0.0 mm
04:00 AM 24.8°F-4.0°C 17.1°F-8.3°C 72% 18.7 mph NNW30.1 kmh NNW 22.6 mph36.4 kmh 29.83 in1010.2 mb 0.00 in0.0 mm 0.00 in0.0 mm 0.00 in0.0 mm
04:10 AM 24.8°F-4.0°C 17.4°F-8.1°C 73% 15.7 mph NNE25.3 kmh NNE 20.9 mph33.6 kmh 29.82 in1009.8 mb 0.00 in0.0 mm 0.00 in0.0 mm 0.00 in0.0 mm
04:20 AM 24.6°F-4.1°C 17.2°F-8.2°C 73% 17.4 mph N28.0 kmh N 24.4 mph39.3 kmh 29.82 in1009.8 mb 0.00 in0.0 mm 0.00 in0.0 mm 0.00 in0.0 mm
04:30 AM 24.6°F-4.1°C 16.9°F-8.4°C 72% 16.9 mph NE27.2 kmh NE 22.6 mph36.4 kmh 29.81 in1009.5 mb 0.00 in0.0 mm 0.00 in0.0 mm 0.00 in0.0 mm
04:40 AM 24.8°F-4.0°C 17.1°F-8.3°C 72% 14.2 mph N22.9 kmh N 19.2 mph30.9 kmh 29.81 in1009.5 mb 0.00 in0.0 mm 0.00 in0.0 mm 0.00 in0.0 mm
04:50 AM 25.0°F-3.9°C 17.5°F-8.1°C 73% 17.8 mph N28.6 kmh N 19.2 mph30.9 kmh 29.80 in1009.1 mb 0.00 in0.0 mm 0.00 in0.0 mm 0.00 in0.0 mm
05:00 AM 25.0°F-3.9°C 17.5°F-8.1°C 73% 14.3 mph NNE23.0 kmh NNE 22.6 mph36.4 kmh 29.80 in1009.1 mb 0.00 in0.0 mm 0.00 in0.0 mm 0.00 in0.0 mm
05:10 AM 25.2°F-3.8°C 17.4°F-8.1°C 72% 14.0 mph NW22.5 kmh NW 20.2 mph32.5 kmh 29.80 in1009.1 mb 0.00 in0.0 mm 0.00 in0.0 mm 0.00 in0.0 mm
05:20 AM 25.2°F-3.8°C 17.7°F-7.9°C 73% 11.3 mph NNW18.2 kmh NNW 19.2 mph30.9 kmh 29.79 in1008.8 mb 0.00 in0.0 mm 0.00 in0.0 mm 0.00 in0.0 mm
05:30 AM 25.2°F-3.8°C 17.4°F-8.1°C 72% 17.0 mph NNE27.4 kmh NNE 20.9 mph33.6 kmh 29.78 in1008.5 mb 0.00 in0.0 mm 0.00 in0.0 mm 0.00 in0.0 mm
05:40 AM 25.3°F-3.7°C 17.6°F-8.0°C 72% 13.5 mph N21.7 kmh N 17.5 mph28.2 kmh 29.78 in1008.5 mb 0.00 in0.0 mm 0.00 in0.0 mm 0.00 in0.0 mm
05:50 AM 25.3°F-3.7°C 17.9°F-7.8°C 73% 15.9 mph NNE25.6 kmh NNE 18.5 mph29.8 kmh 29.77 in1008.1 mb 0.00 in0.0 mm 0.00 in0.0 mm 0.00 in0.0 mm
06:00 AM 25.5°F-3.6°C 17.7°F-7.9°C 72% 14.4 mph NW23.2 kmh NW 17.5 mph28.2 kmh 29.77 in1008.1 mb 0.00 in0.0 mm 0.00 in0.0 mm 0.00 in0.0 mm
06:10 AM 25.3°F-3.7°C 17.6°F-8.0°C 72% 15.5 mph NE24.9 kmh NE 17.5 mph28.2 kmh 29.78 in1008.5 mb 0.00 in0.0 mm 0.00 in0.0 mm 0.00 in0.0 mm
06:20 AM 25.5°F-3.6°C 17.7°F-7.9°C 72% 15.2 mph NE24.5 kmh NE 18.5 mph29.8 kmh 29.77 in1008.1 mb 0.00 in0.0 mm 0.00 in0.0 mm 0.00 in0.0 mm
06:30 AM 25.7°F-3.5°C 18.2°F-7.7°C 73% 17.9 mph N28.8 kmh N 20.2 mph32.5 kmh 29.76 in1007.8 mb 0.00 in0.0 mm 0.00 in0.0 mm 0.00 in0.0 mm
06:40 AM 25.7°F-3.5°C 18.2°F-7.7°C 73% 15.7 mph NNE25.3 kmh NNE 21.7 mph34.9 kmh 29.76 in1007.8 mb 0.00 in0.0 mm 0.00 in0.0 mm 0.00 in0.0 mm
06:50 AM 25.7°F-3.5°C 18.2°F-7.7°C 73% 19.0 mph N30.6 kmh N 22.6 mph36.4 kmh 29.76 in1007.8 mb 0.00 in0.0 mm 0.00 in0.0 mm 0.00 in0.0 mm
07:00 AM 25.7°F-3.5°C 18.2°F-7.7°C 73% 15.1 mph N24.3 kmh N 16.7 mph26.9 kmh 29.75 in1007.5 mb 0.00 in0.0 mm 0.00 in0.0 mm 0.00 in0.0 mm
07:10 AM 25.7°F-3.5°C 18.6°F-7.4°C 74% 12.5 mph N20.1 kmh N 20.9 mph33.6 kmh 29.75 in1007.5 mb 0.00 in0.0 mm 0.00 in0.0 mm 0.00 in0.0 mm
07:20 AM 25.9°F-3.4°C 19.0°F-7.2°C 75% 12.1 mph N19.5 kmh N 14.3 mph23.0 kmh 29.74 in1007.1 mb 0.00 in0.0 mm 0.00 in0.0 mm 0.00 in0.0 mm
07:30 AM 25.9°F-3.4°C 18.7°F-7.4°C 74% 15.2 mph NNE24.5 kmh NNE 21.7 mph34.9 kmh 29.75 in1007.5 mb 0.00 in0.0 mm 0.00 in0.0 mm 0.00 in0.0 mm
07:40 AM 26.1°F-3.3°C 18.9°F-7.3°C 74% 15.0 mph N24.1 kmh N 22.6 mph36.4 kmh 29.74 in1007.1 mb 0.00 in0.0 mm 0.00 in0.0 mm 0.00 in0.0 mm
07:50 AM 26.1°F-3.3°C 18.6°F-7.4°C 73% 15.2 mph NNE24.5 kmh NNE 23.4 mph37.7 kmh 29.74 in1007.1 mb 0.00 in0.0 mm 0.00 in0.0 mm 0.00 in0.0 mm
08:00 AM 26.2°F-3.2°C 18.8°F-7.3°C 73% 14.1 mph N22.7 kmh N 22.6 mph36.4 kmh 29.74 in1007.1 mb 0.00 in0.0 mm 0.00 in0.0 mm 0.00 in0.0 mm
08:10 AM 26.2°F-3.2°C 19.1°F-7.2°C 74% 15.4 mph NNW24.8 kmh NNW 24.4 mph39.3 kmh 29.74 in1007.1 mb 0.00 in0.0 mm 0.00 in0.0 mm 0.00 in0.0 mm
08:20 AM 26.4°F-3.1°C 19.3°F-7.1°C 74% 13.7 mph N22.0 kmh N 18.5 mph29.8 kmh 29.73 in1006.8 mb 0.00 in0.0 mm 0.00 in0.0 mm 0.00 in0.0 mm
08:30 AM 26.6°F-3.0°C 19.4°F-7.0°C 74% 15.7 mph N25.3 kmh N 20.9 mph33.6 kmh 29.72 in1006.4 mb 0.00 in0.0 mm 0.00 in0.0 mm 0.00 in0.0 mm
08:40 AM 26.6°F-3.0°C 19.4°F-7.0°C 74% 15.5 mph N24.9 kmh N 25.1 mph40.4 kmh 29.72 in1006.4 mb 0.00 in0.0 mm 0.00 in0.0 mm 0.00 in0.0 mm
08:50 AM 26.6°F-3.0°C 19.4°F-7.0°C 74% 17.8 mph NE28.6 kmh NE 19.2 mph30.9 kmh 29.72 in1006.4 mb 0.00 in0.0 mm 0.00 in0.0 mm 0.00 in0.0 mm
09:00 AM 26.8°F-2.9°C 19.6°F-6.9°C 74% 15.7 mph NNE25.3 kmh NNE 27.6 mph44.4 kmh 29.71 in1006.1 mb 0.00 in0.0 mm 0.00 in0.0 mm 0.00 in0.0 mm
09:10 AM 26.8°F-2.9°C 19.6°F-6.9°C 74% 15.6 mph W25.1 kmh W 15.0 mph24.1 kmh 29.71 in1006.1 mb 0.00 in0.0 mm 0.00 in0.0 mm 0.00 in0.0 mm
09:20 AM 27.0°F-2.8°C 19.5°F-6.9°C 73% 15.8 mph N25.4 kmh N 23.4 mph37.7 kmh 29.71 in1006.1 mb 0.00 in0.0 mm 0.00 in0.0 mm 0.00 in0.0 mm
09:30 AM 27.1°F-2.7°C 19.9°F-6.7°C 74% 16.8 mph NNW27.0 kmh NNW 24.4 mph39.3 kmh 29.70 in1005.8 mb 0.00 in0.0 mm 0.00 in0.0 mm 0.00 in0.0 mm
09:40 AM 27.3°F-2.6°C 19.8°F-6.8°C 73% 16.4 mph NNW26.4 kmh NNW 20.9 mph33.6 kmh 29.70 in1005.8 mb 0.00 in0.0 mm 0.00 in0.0 mm 0.00 in0.0 mm
09:50 AM 27.7°F-2.4°C 20.5°F-6.4°C 74% 13.0 mph N20.9 kmh N 21.7 mph34.9 kmh 29.70 in1005.8 mb 0.00 in0.0 mm 0.00 in0.0 mm 0.00 in0.0 mm
10:00 AM 27.5°F-2.5°C 20.0°F-6.7°C 73% 15.2 mph NE24.5 kmh NE 23.4 mph37.7 kmh 29.70 in1005.8 mb 0.00 in0.0 mm 0.00 in0.0 mm 0.00 in0.0 mm
10:10 AM 27.7°F-2.4°C 20.5°F-6.4°C 74% 14.3 mph N23.0 kmh N 20.2 mph32.5 kmh 29.70 in1005.8 mb 0.00 in0.0 mm 0.00 in0.0 mm 0.00 in0.0 mm
10:20 AM 27.9°F-2.3°C 20.3°F-6.5°C 73% 13.6 mph NW21.9 kmh NW 23.4 mph37.7 kmh 29.70 in1005.8 mb 0.00 in0.0 mm 0.00 in0.0 mm 0.00 in0.0 mm
10:30 AM 27.7°F-2.4°C 20.2°F-6.6°C 73% 14.3 mph N23.0 kmh N 20.2 mph32.5 kmh 29.70 in1005.8 mb 0.00 in0.0 mm 0.00 in0.0 mm 0.00 in0.0 mm
10:40 AM 27.7°F-2.4°C 20.2°F-6.6°C 73% 15.2 mph N24.5 kmh N 25.8 mph41.5 kmh 29.69 in1005.4 mb 0.00 in0.0 mm 0.00 in0.0 mm 0.00 in0.0 mm
10:50 AM 27.9°F-2.3°C 20.3°F-6.5°C 73% 15.6 mph N25.1 kmh N 20.2 mph32.5 kmh 29.69 in1005.4 mb 0.00 in0.0 mm 0.00 in0.0 mm 0.00 in0.0 mm
11:00 AM 27.9°F-2.3°C 20.3°F-6.5°C 73% 16.9 mph N27.2 kmh N 21.7 mph34.9 kmh 29.68 in1005.1 mb 0.00 in0.0 mm 0.00 in0.0 mm 0.00 in0.0 mm
11:10 AM 27.9°F-2.3°C 20.3°F-6.5°C 73% 14.4 mph W23.2 kmh W 19.2 mph30.9 kmh 29.68 in1005.1 mb 0.00 in0.0 mm 0.00 in0.0 mm 0.00 in0.0 mm
11:20 AM 28.0°F-2.2°C 20.5°F-6.4°C 73% 15.6 mph NNE25.1 kmh NNE 20.2 mph32.5 kmh 29.68 in1005.1 mb 0.00 in0.0 mm 0.00 in0.0 mm 0.00 in0.0 mm
11:30 AM 28.0°F-2.2°C 20.2°F-6.6°C 72% 16.4 mph N26.4 kmh N 21.7 mph34.9 kmh 29.68 in1005.1 mb 0.00 in0.0 mm 0.00 in0.0 mm 0.00 in0.0 mm
11:40 AM 28.0°F-2.2°C 20.2°F-6.6°C 72% 15.8 mph NNW25.4 kmh NNW 18.5 mph29.8 kmh 29.68 in1005.1 mb 0.00 in0.0 mm 0.00 in0.0 mm 0.00 in0.0 mm
11:50 AM 28.0°F-2.2°C 20.2°F-6.6°C 72% 16.3 mph NE26.2 kmh NE 17.5 mph28.2 kmh 29.66 in1004.4 mb 0.00 in0.0 mm 0.00 in0.0 mm 0.00 in0.0 mm
12:00 PM 28.2°F-2.1°C 20.7°F-6.3°C 73% 15.6 mph N25.1 kmh N 26.8 mph43.1 kmh 29.66 in1004.4 mb 0.00 in0.0 mm 0.00 in0.0 mm 0.00 in0.0 mm
12:10 PM 28.2°F-2.1°C 20.7°F-6.3°C 73% 16.5 mph N26.6 kmh N 23.4 mph37.7 kmh 29.66 in1004.4 mb 0.00 in0.0 mm 0.00 in0.0 mm 0.00 in0.0 mm
12:20 PM 28.2°F-2.1°C 20.7°F-6.3°C 73% 17.7 mph NNE28.5 kmh NNE 20.9 mph33.6 kmh 29.65 in1004.1 mb 0.00 in0.0 mm 0.00 in0.0 mm 0.00 in0.0 mm
12:30 PM 28.2°F-2.1°C 20.7°F-6.3°C 73% 16.6 mph NE26.7 kmh NE 23.4 mph37.7 kmh 29.65 in1004.1 mb 0.00 in0.0 mm 0.00 in0.0 mm 0.00 in0.0 mm
12:40 PM 28.2°F-2.1°C 20.3°F-6.5°C 72% 18.1 mph NNE29.1 kmh NNE 21.7 mph34.9 kmh 29.65 in1004.1 mb 0.00 in0.0 mm 0.00 in0.0 mm 0.00 in0.0 mm
12:50 PM 28.2°F-2.1°C 20.3°F-6.5°C 72% 17.3 mph N27.8 kmh N 20.2 mph32.5 kmh 29.65 in1004.1 mb 0.00 in0.0 mm 0.00 in0.0 mm 0.00 in0.0 mm
01:00 PM 28.2°F-2.1°C 20.3°F-6.5°C 72% 16.6 mph N26.7 kmh N 24.4 mph39.3 kmh 29.65 in1004.1 mb 0.00 in0.0 mm 0.00 in0.0 mm 0.00 in0.0 mm
01:10 PM 28.4°F-2.0°C 20.8°F-6.2°C 73% 14.4 mph NE23.2 kmh NE 19.2 mph30.9 kmh 29.65 in1004.1 mb 0.00 in0.0 mm 0.00 in0.0 mm 0.00 in0.0 mm
01:20 PM 28.4°F-2.0°C 20.8°F-6.2°C 73% 14.0 mph N22.5 kmh N 16.7 mph26.9 kmh 29.65 in1004.1 mb 0.00 in0.0 mm 0.00 in0.0 mm 0.00 in0.0 mm
01:30 PM 28.6°F-1.9°C 20.7°F-6.3°C 72% 18.0 mph N29.0 kmh N 23.4 mph37.7 kmh 29.64 in1003.7 mb 0.00 in0.0 mm 0.00 in0.0 mm 0.00 in0.0 mm
01:40 PM 28.6°F-1.9°C 20.7°F-6.3°C 72% 17.1 mph N27.5 kmh N 22.6 mph36.4 kmh 29.63 in1003.4 mb 0.00 in0.0 mm 0.00 in0.0 mm 0.00 in0.0 mm
01:50 PM 28.6°F-1.9°C 20.7°F-6.3°C 72% 12.8 mph N20.6 kmh N 18.5 mph29.8 kmh 29.63 in1003.4 mb 0.00 in0.0 mm 0.00 in0.0 mm 0.00 in0.0 mm
02:00 PM 28.6°F-1.9°C 20.7°F-6.3°C 72% 13.5 mph NE21.7 kmh NE 21.7 mph34.9 kmh 29.63 in1003.4 mb 0.00 in0.0 mm 0.00 in0.0 mm 0.00 in0.0 mm
02:10 PM 28.8°F-1.8°C 21.2°F-6.0°C 73% 16.9 mph NW27.2 kmh NW 24.4 mph39.3 kmh 29.62 in1003.0 mb 0.00 in0.0 mm 0.00 in0.0 mm 0.00 in0.0 mm
02:20 PM 28.8°F-1.8°C 20.9°F-6.2°C 72% 14.4 mph NNE23.2 kmh NNE 20.9 mph33.6 kmh 29.62 in1003.0 mb 0.00 in0.0 mm 0.00 in0.0 mm 0.00 in0.0 mm
02:30 PM 28.9°F-1.7°C 21.0°F-6.1°C 72% 17.2 mph N27.7 kmh N 19.2 mph30.9 kmh 29.62 in1003.0 mb 0.00 in0.0 mm 0.00 in0.0 mm 0.00 in0.0 mm
02:40 PM 28.9°F-1.7°C 21.0°F-6.1°C 72% 17.4 mph N28.0 kmh N 23.4 mph37.7 kmh 29.61 in1002.7 mb 0.00 in0.0 mm 0.00 in0.0 mm 0.00 in0.0 mm
02:50 PM 28.9°F-1.7°C 21.0°F-6.1°C 72% 17.4 mph N28.0 kmh N 19.2 mph30.9 kmh 29.61 in1002.7 mb 0.00 in0.0 mm 0.00 in0.0 mm 0.00 in0.0 mm
03:00 PM 28.8°F-1.8°C 20.9°F-6.2°C 72% 16.7 mph NE26.9 kmh NE 23.4 mph37.7 kmh 29.60 in1002.4 mb 0.00 in0.0 mm 0.00 in0.0 mm 0.00 in0.0 mm
03:10 PM 28.8°F-1.8°C 20.9°F-6.2°C 72% 20.3 mph N32.7 kmh N 18.5 mph29.8 kmh 29.60 in1002.4 mb 0.00 in0.0 mm 0.00 in0.0 mm 0.00 in0.0 mm
03:20 PM 28.9°F-1.7°C 21.0°F-6.1°C 72% 18.7 mph NNW30.1 kmh NNW 21.7 mph34.9 kmh 29.60 in1002.4 mb 0.00 in0.0 mm 0.00 in0.0 mm 0.00 in0.0 mm
03:30 PM 28.9°F-1.7°C 21.0°F-6.1°C 72% 18.1 mph NNE29.1 kmh NNE 29.3 mph47.2 kmh 29.59 in1002.0 mb 0.00 in0.0 mm 0.00 in0.0 mm 0.00 in0.0 mm
03:40 PM 28.9°F-1.7°C 21.0°F-6.1°C 72% 18.6 mph N29.9 kmh N 29.3 mph47.2 kmh 29.59 in1002.0 mb 0.00 in0.0 mm 0.00 in0.0 mm 0.00 in0.0 mm
03:50 PM 28.8°F-1.8°C 20.9°F-6.2°C 72% 18.8 mph N30.3 kmh N 20.9 mph33.6 kmh 29.59 in1002.0 mb 0.00 in0.0 mm 0.00 in0.0 mm 0.00 in0.0 mm
04:00 PM 28.9°F-1.7°C 21.0°F-6.1°C 72% 17.6 mph NE28.3 kmh NE 25.8 mph41.5 kmh 29.59 in1002.0 mb 0.00 in0.0 mm 0.00 in0.0 mm 0.00 in0.0 mm
04:10 PM 28.8°F-1.8°C 20.9°F-6.2°C 72% 16.3 mph NNE26.2 kmh NNE 23.4 mph37.7 kmh 29.59 in1002.0 mb 0.00 in0.0 mm 0.00 in0.0 mm 0.00 in0.0 mm
04:20 PM 28.9°F-1.7°C 21.0°F-6.1°C 72% 16.5 mph N26.6 kmh N 22.6 mph36.4 kmh 29.58 in1001.7 mb 0.00 in0.0 mm 0.00 in0.0 mm 0.00 in0.0 mm
04:30 PM 28.9°F-1.7°C 20.7°F-6.3°C 71% 18.9 mph N30.4 kmh N 23.4 mph37.7 kmh 29.58 in1001.7 mb 0.00 in0.0 mm 0.00 in0.0 mm 0.00 in0.0 mm
04:40 PM 28.9°F-1.7°C 21.0°F-6.1°C 72% 20.2 mph N32.5 kmh N 22.6 mph36.4 kmh 29.58 in1001.7 mb 0.00 in0.0 mm 0.00 in0.0 mm 0.00 in0.0 mm
04:50 PM 28.9°F-1.7°C 21.4°F-5.9°C 73% 16.2 mph NE26.1 kmh NE 17.5 mph28.2 kmh 29.58 in1001.7 mb 0.00 in0.0 mm 0.00 in0.0 mm 0.00 in0.0 mm
05:00 PM 28.9°F-1.7°C 21.0°F-6.1°C 72% 17.4 mph N28.0 kmh N 21.7 mph34.9 kmh 29.58 in1001.7 mb 0.00 in0.0 mm 0.00 in0.0 mm 0.00 in0.0 mm
05:10 PM 28.9°F-1.7°C 21.0°F-6.1°C 72% 17.1 mph N27.5 kmh N 16.7 mph26.9 kmh 29.58 in1001.7 mb 0.00 in0.0 mm 0.00 in0.0 mm 0.00 in0.0 mm
05:20 PM 29.1°F-1.6°C 21.2°F-6.0°C 72% 15.5 mph N24.9 kmh N 16.0 mph25.7 kmh 29.58 in1001.7 mb 0.00 in0.0 mm 0.00 in0.0 mm 0.00 in0.0 mm
05:30 PM 28.9°F-1.7°C 21.0°F-6.1°C 72% 16.6 mph N26.7 kmh N 22.6 mph36.4 kmh 29.57 in1001.4 mb 0.00 in0.0 mm 0.00 in0.0 mm 0.00 in0.0 mm
05:40 PM 29.1°F-1.6°C 21.2°F-6.0°C 72% 18.3 mph NNW29.5 kmh NNW 26.8 mph43.1 kmh 29.58 in1001.7 mb 0.00 in0.0 mm 0.00 in0.0 mm 0.00 in0.0 mm
05:50 PM 29.1°F-1.6°C 21.2°F-6.0°C 72% 15.1 mph NNE24.3 kmh NNE 22.6 mph36.4 kmh 29.58 in1001.7 mb 0.00 in0.0 mm 0.00 in0.0 mm 0.00 in0.0 mm
06:00 PM 29.1°F-1.6°C 21.2°F-6.0°C 72% 18.9 mph N30.4 kmh N 21.7 mph34.9 kmh 29.58 in1001.7 mb 0.00 in0.0 mm 0.00 in0.0 mm 0.00 in0.0 mm
06:10 PM 29.1°F-1.6°C 21.2°F-6.0°C 72% 18.3 mph N29.5 kmh N 22.6 mph36.4 kmh 29.57 in1001.4 mb 0.00 in0.0 mm 0.00 in0.0 mm 0.00 in0.0 mm
06:20 PM 29.3°F-1.5°C 21.4°F-5.9°C 72% 18.4 mph NE29.6 kmh NE 21.7 mph34.9 kmh 29.57 in1001.4 mb 0.00 in0.0 mm 0.00 in0.0 mm 0.00 in0.0 mm
06:30 PM 29.3°F-1.5°C 21.4°F-5.9°C 72% 16.3 mph NNE26.2 kmh NNE 23.4 mph37.7 kmh 29.57 in1001.4 mb 0.00 in0.0 mm 0.00 in0.0 mm 0.00 in0.0 mm
06:40 PM 29.3°F-1.5°C 21.7°F-5.7°C 73% 14.0 mph NW22.5 kmh NW 17.5 mph28.2 kmh 29.57 in1001.4 mb 0.00 in0.0 mm 0.00 in0.0 mm 0.00 in0.0 mm
06:50 PM 29.3°F-1.5°C 21.7°F-5.7°C 73% 14.2 mph N22.9 kmh N 18.5 mph29.8 kmh 29.57 in1001.4 mb 0.00 in0.0 mm 0.00 in0.0 mm 0.00 in0.0 mm
07:00 PM 29.3°F-1.5°C 21.7°F-5.7°C 73% 15.7 mph N25.3 kmh N 21.7 mph34.9 kmh 29.57 in1001.4 mb 0.00 in0.0 mm 0.00 in0.0 mm 0.00 in0.0 mm
07:10 PM 29.3°F-1.5°C 21.7°F-5.7°C 73% 19.2 mph NW30.9 kmh NW 21.7 mph34.9 kmh 29.56 in1001.0 mb 0.00 in0.0 mm 0.00 in0.0 mm 0.00 in0.0 mm
07:20 PM 29.3°F-1.5°C 21.7°F-5.7°C 73% 14.0 mph N22.5 kmh N 17.5 mph28.2 kmh 29.57 in1001.4 mb 0.00 in0.0 mm 0.00 in0.0 mm 0.00 in0.0 mm
07:30 PM 29.3°F-1.5°C 21.4°F-5.9°C 72% 13.2 mph NW21.2 kmh NW 16.7 mph26.9 kmh 29.57 in1001.4 mb 0.00 in0.0 mm 0.00 in0.0 mm 0.00 in0.0 mm
07:40 PM 29.3°F-1.5°C 21.7°F-5.7°C 73% 16.7 mph NE26.9 kmh NE 24.4 mph39.3 kmh 29.56 in1001.0 mb 0.00 in0.0 mm 0.00 in0.0 mm 0.00 in0.0 mm
07:50 PM 29.3°F-1.5°C 21.7°F-5.7°C 73% 13.4 mph N21.6 kmh N 20.2 mph32.5 kmh 29.57 in1001.4 mb 0.00 in0.0 mm 0.00 in0.0 mm 0.00 in0.0 mm
08:00 PM 29.1°F-1.6°C 21.5°F-5.8°C 73% 14.6 mph N23.5 kmh N 17.5 mph28.2 kmh 29.56 in1001.0 mb 0.00 in0.0 mm 0.00 in0.0 mm 0.00 in0.0 mm
08:10 PM 29.3°F-1.5°C 21.7°F-5.7°C 73% 14.6 mph NNE23.5 kmh NNE 20.9 mph33.6 kmh 29.57 in1001.4 mb 0.00 in0.0 mm 0.00 in0.0 mm 0.00 in0.0 mm
08:20 PM 29.3°F-1.5°C 21.7°F-5.7°C 73% 13.4 mph NNE21.6 kmh NNE 19.2 mph30.9 kmh 29.56 in1001.0 mb 0.00 in0.0 mm 0.00 in0.0 mm 0.00 in0.0 mm
08:30 PM 29.3°F-1.5°C 21.7°F-5.7°C 73% 13.4 mph N21.6 kmh N 20.9 mph33.6 kmh 29.56 in1001.0 mb 0.00 in0.0 mm 0.00 in0.0 mm 0.00 in0.0 mm
08:40 PM 29.3°F-1.5°C 21.4°F-5.9°C 72% 16.8 mph N27.0 kmh N 20.9 mph33.6 kmh 29.55 in1000.7 mb 0.00 in0.0 mm 0.00 in0.0 mm 0.00 in0.0 mm
08:50 PM 29.3°F-1.5°C 21.7°F-5.7°C 73% 14.1 mph NE22.7 kmh NE 22.6 mph36.4 kmh 29.55 in1000.7 mb 0.00 in0.0 mm 0.00 in0.0 mm 0.00 in0.0 mm
09:00 PM 29.3°F-1.5°C 21.7°F-5.7°C 73% 14.5 mph NNE23.3 kmh NNE 22.6 mph36.4 kmh 29.55 in1000.7 mb 0.00 in0.0 mm 0.00 in0.0 mm 0.00 in0.0 mm
09:10 PM 29.1°F-1.6°C 21.5°F-5.8°C 73% 14.3 mph N23.0 kmh N 19.2 mph30.9 kmh 29.55 in1000.7 mb 0.00 in0.0 mm 0.00 in0.0 mm 0.00 in0.0 mm
09:20 PM 29.1°F-1.6°C 21.5°F-5.8°C 73% 15.1 mph N24.3 kmh N 18.5 mph29.8 kmh 29.55 in1000.7 mb 0.00 in0.0 mm 0.00 in0.0 mm 0.00 in0.0 mm
09:30 PM 29.1°F-1.6°C 21.5°F-5.8°C 73% 15.1 mph N24.3 kmh N 25.8 mph41.5 kmh 29.55 in1000.7 mb 0.00 in0.0 mm 0.00 in0.0 mm 0.00 in0.0 mm
09:40 PM 29.1°F-1.6°C 21.5°F-5.8°C 73% 14.4 mph NE23.2 kmh NE 22.6 mph36.4 kmh 29.55 in1000.7 mb 0.00 in0.0 mm 0.00 in0.0 mm 0.00 in0.0 mm
09:50 PM 29.1°F-1.6°C 21.9°F-5.6°C 74% 14.3 mph N23.0 kmh N 23.4 mph37.7 kmh 29.55 in1000.7 mb 0.00 in0.0 mm 0.00 in0.0 mm 0.00 in0.0 mm
10:00 PM 29.1°F-1.6°C 21.9°F-5.6°C 74% 14.1 mph NNE22.7 kmh NNE 20.2 mph32.5 kmh 29.55 in1000.7 mb 0.00 in0.0 mm 0.00 in0.0 mm 0.00 in0.0 mm
10:10 PM 28.9°F-1.7°C 21.7°F-5.7°C 74% 13.8 mph N22.2 kmh N 18.5 mph29.8 kmh 29.55 in1000.7 mb 0.00 in0.0 mm 0.00 in0.0 mm 0.00 in0.0 mm
10:20 PM 28.9°F-1.7°C 21.7°F-5.7°C 74% 13.9 mph N22.4 kmh N 19.2 mph30.9 kmh 29.54 in1000.3 mb 0.00 in0.0 mm 0.00 in0.0 mm 0.00 in0.0 mm
10:30 PM 28.9°F-1.7°C 21.4°F-5.9°C 73% 15.2 mph N24.5 kmh N 19.2 mph30.9 kmh 29.53 in1000.0 mb 0.00 in0.0 mm 0.00 in0.0 mm 0.00 in0.0 mm
10:40 PM 28.8°F-1.8°C 21.2°F-6.0°C 73% 14.9 mph NNW24.0 kmh NNW 18.5 mph29.8 kmh 29.54 in1000.3 mb 0.00 in0.0 mm 0.00 in0.0 mm 0.00 in0.0 mm
10:50 PM 28.8°F-1.8°C 21.2°F-6.0°C 73% 12.3 mph NNE19.8 kmh NNE 19.2 mph30.9 kmh 29.54 in1000.3 mb 0.00 in0.0 mm 0.00 in0.0 mm 0.00 in0.0 mm
11:00 PM 28.8°F-1.8°C 21.2°F-6.0°C 73% 12.7 mph NNW20.4 kmh NNW 16.0 mph25.7 kmh 29.54 in1000.3 mb 0.00 in0.0 mm 0.00 in0.0 mm 0.00 in0.0 mm
11:10 PM 28.8°F-1.8°C 21.2°F-6.0°C 73% 15.7 mph E25.3 kmh E 16.0 mph25.7 kmh 29.55 in1000.7 mb 0.00 in0.0 mm 0.00 in0.0 mm 0.00 in0.0 mm
11:20 PM 28.6°F-1.9°C 21.3°F-5.9°C 74% 13.6 mph NNE21.9 kmh NNE 17.5 mph28.2 kmh 29.54 in1000.3 mb 0.00 in0.0 mm 0.00 in0.0 mm 0.00 in0.0 mm
11:30 PM 28.8°F-1.8°C 21.8°F-5.7°C 75% 12.9 mph NNE20.8 kmh NNE 16.0 mph25.7 kmh 29.54 in1000.3 mb 0.00 in0.0 mm 0.00 in0.0 mm 0.00 in0.0 mm
11:40 PM 28.8°F-1.8°C 21.5°F-5.8°C 74% 12.4 mph NE20.0 kmh NE 15.0 mph24.1 kmh 29.54 in1000.3 mb 0.00 in0.0 mm 0.00 in0.0 mm 0.00 in0.0 mm
11:50 PM 28.6°F-1.9°C 21.3°F-5.9°C 74% 12.7 mph N20.4 kmh N 21.7 mph34.9 kmh 29.53 in1000.0 mb 0.00 in0.0 mm 0.00 in0.0 mm 0.00 in0.0 mm